Elk City, Idaho
Current Conditions -  °F | °C
As of 1:35 AM on Sunday 26 Oct 2014 (Local Time) from KGIC Reporting Station
Broken Clouds Broken Clouds  
Wind Chill: 54°   Ceiling: 12000
Heat Index: 54°   Visibility: 10mi
Dew Point: 34°   Wind: 14mph
Humidity: 47%   Direction: 270°W
Pressure: 29.84"   Gusts: 29mph
Location:  45.83°N, 115.44°W
Report Text: KGIC 260835Z AUTO 27012G25KT 10SM SCT060 SCT090 BKN120 12/01 A2984 RMK AO1 T01200011
Loading
Personal Weather Stations






























Interactive Weather Map New forecast layout! Learn more

10-Day Weather Forecast

Advertisements
Track Severe Weather on mobile